Time;durP1;ratioP1;P1;durP2;ratioP2;P2;SDS_P1;SDS_P2;PMS_P1;PMS_P2;Temp;Humidity;BMP_temperature;BMP_pressure;BME280_temperature;BME280_humidity;BME280_pressure;Samples;Min_cycle;Max_cycle;Signal;HPM_P1;HPM_P2
2022/04/28 00:01:11;;;;;;;5.95;3.03;;;0.60;1.00;;;1.43;84.22;100024.06;5024201;27;129300;-69
2022/04/28 00:03:39;;;;;;;6.50;3.60;;;0.50;1.00;;;1.44;84.40;100025.69;5038777;27;119798;-71
2022/04/28 00:06:08;;;;;;;6.93;3.40;;;0.50;1.00;;;1.47;84.75;100035.13;5008130;27;118555;-70
2022/04/28 00:08:37;;;;;;;7.95;3.38;;;0.60;1.00;;;1.49;84.60;100035.69;5038895;27;131304;-70
2022/04/28 00:11:11;;;;;;;8.40;3.25;;;0.50;1.00;;;1.51;85.12;100037.09;5024223;27;129221;-71
2022/04/28 00:13:41;;;;;;;9.13;3.58;;;0.60;1.00;;;1.56;85.83;100039.06;5037937;27;122308;-69
2022/04/28 00:16:09;;;;;;;7.63;3.90;;;0.70;1.00;;;1.52;86.10;100032.53;5039388;27;121679;-69
2022/04/28 00:18:38;;;;;;;8.48;3.97;;;0.70;1.00;;;1.55;86.34;100037.41;5023796;27;129245;-70
2022/04/28 00:21:06;;;;;;;8.50;4.35;;;0.80;1.00;;;1.55;86.50;100043.56;5038986;27;129790;-68
2022/04/28 00:23:34;;;;;;;8.45;4.50;;;0.80;1.00;;;1.51;86.90;100045.13;5041093;27;119310;-69
2022/04/28 00:26:03;;;;;;;8.73;5.13;;;0.80;1.00;;;1.50;87.24;100042.69;5039127;27;119650;-67
2022/04/28 00:28:33;;;;;;;10.23;5.63;;;0.80;1.00;;;1.51;87.26;100039.75;5038734;27;130120;-71
2022/04/28 00:31:02;;;;;;;10.20;4.60;;;0.70;1.00;;;1.50;86.98;100040.00;5041032;27;129447;-68
2022/04/28 00:33:30;;;;;;;10.93;5.40;;;0.60;1.00;;;1.47;86.71;100032.44;5023996;27;119671;-69
2022/04/28 00:35:58;;;;;;;11.80;5.75;;;0.40;1.00;;;1.43;87.05;100030.25;5038923;27;119766;-69
2022/04/28 00:38:27;;;;;;;10.43;5.68;;;0.40;1.00;;;1.38;87.21;100035.47;5022438;27;130607;-69
2022/04/28 00:40:55;;;;;;;9.20;5.35;;;0.40;1.00;;;1.34;87.93;100038.88;5040547;27;129052;-66
2022/04/28 00:43:26;;;;;;;12.48;5.45;;;0.40;1.00;;;1.36;87.64;100039.47;5038588;27;120642;-68
2022/04/28 00:45:57;;;;;;;10.27;4.97;;;0.30;1.00;;;1.35;87.18;100037.81;5023358;27;119562;-69
2022/04/28 00:51:13;;;;;;;10.23;5.32;;;0.20;1.00;;;1.31;88.26;100037.50;5020407;27;130789;-70
2022/04/28 00:53:46;;;;;;;10.40;5.28;;;0.20;1.00;;;1.30;88.45;100030.50;5037682;27;119785;-70
2022/04/28 00:56:15;;;;;;;10.43;5.38;;;0.20;1.00;;;1.27;88.43;100032.84;5023805;27;118711;-68
2022/04/28 00:58:44;;;;;;;7.95;4.53;;;0.20;1.00;;;1.21;88.58;100026.59;5036790;27;131006;-70
2022/04/28 01:01:15;;;;;;;10.52;5.78;;;0.20;1.00;;;1.12;89.35;100033.34;5023161;27;129670;-70
2022/04/28 01:03:46;;;;;;;10.15;5.57;;;0.20;1.00;;;1.10;89.81;100030.09;5039212;27;123420;-69
2022/04/28 01:06:15;;;;;;;9.57;5.53;;;0.20;1.00;;;1.11;89.53;100031.72;5038288;27;122079;-68
2022/04/28 01:08:43;;;;;;;10.13;4.65;;;0.20;1.00;;;1.10;89.24;100027.44;5022865;27;129014;-68
2022/04/28 01:11:12;;;;;;;9.98;5.22;;;0.10;1.00;;;1.07;88.92;100034.06;5023350;27;129839;-69
2022/04/28 01:13:48;;;;;;;10.52;5.38;;;0.00;1.00;;;1.02;89.25;100032.09;5040070;27;119415;-69
2022/04/28 01:16:29;;;;;;;9.82;5.45;;;0.00;1.00;;;0.98;89.02;100032.78;5022591;27;118874;-68
2022/04/28 01:18:58;;;;;;;11.98;5.75;;;-0.10;1.00;;;0.95;89.08;100023.41;5039881;27;129725;-68
2022/04/28 01:21:29;;;;;;;9.88;5.32;;;-0.10;1.00;;;0.74;91.25;100029.34;5023248;27;129879;-69
2022/04/28 01:24:03;;;;;;;8.38;4.97;;;0.00;1.00;;;0.59;92.60;100035.13;5036897;27;119778;-70
2022/04/28 01:26:32;;;;;;;8.98;4.95;;;0.00;1.00;;;0.58;92.87;100037.00;5023118;27;118336;-70
2022/04/28 01:29:01;;;;;;;8.77;4.85;;;0.00;1.00;;;0.46;94.22;100030.84;5018326;27;129877;-69
2022/04/28 01:31:30;;;;;;;7.95;4.78;;;0.10;1.00;;;0.44;94.41;100024.94;5039758;27;129217;-69
2022/04/28 01:34:02;;;;;;;8.80;4.57;;;0.00;1.00;;;0.41;94.97;100022.72;5023100;27;119011;-70
2022/04/28 01:36:33;;;;;;;9.32;5.25;;;0.00;1.00;;;0.44;94.52;100022.25;5023170;27;119352;-70
2022/04/28 01:39:03;;;;;;;8.45;4.38;;;0.00;1.00;;;0.33;96.17;100016.66;5039420;27;129359;-70
2022/04/28 01:41:32;;;;;;;8.75;4.90;;;0.00;1.00;;;0.31;97.19;100017.94;5039662;27;129804;-71
2022/04/28 01:44:01;;;;;;;11.25;4.75;;;0.10;1.00;;;0.29;98.32;100026.16;5019468;27;119728;-71
2022/04/28 01:46:30;;;;;;;11.52;5.47;;;0.20;1.00;;;0.32;98.23;100025.72;5039645;27;119062;-68
2022/04/28 01:49:00;;;;;;;12.07;5.50;;;0.20;1.00;;;0.43;97.74;100025.97;5037502;27;130031;-69
2022/04/28 01:54:59;;;;;;;11.43;5.57;;;0.00;1.00;;;0.61;96.55;100033.03;5001553;27;122294;-70
2022/04/28 01:57:47;;;;;;;10.02;5.47;;;0.00;1.00;;;0.62;96.63;100032.81;5037659;27;122541;-68
2022/04/28 02:00:35;;;;;;;9.10;5.22;;;0.10;1.00;;;0.68;96.96;100036.41;5039230;27;129248;-70
2022/04/28 02:03:09;;;;;;;10.23;5.50;;;0.10;1.00;;;0.73;96.85;100035.72;5036239;27;130006;-70
2022/04/28 02:05:37;;;;;;;9.48;5.95;;;0.00;1.00;;;0.77;96.08;100034.22;5039572;27;119380;-68
2022/04/28 02:08:10;;;;;;;13.05;5.97;;;-0.10;1.00;;;0.75;96.78;100028.28;5019348;27;119535;-69
2022/04/28 02:10:39;;;;;;;17.15;9.00;;;0.10;1.00;;;0.71;97.27;100030.59;5038990;27;129342;-68
2022/04/28 02:13:14;;;;;;;11.45;6.65;;;0.10;1.00;;;0.67;97.92;100038.28;5022213;27;132864;-70
2022/04/28 02:16:18;;;;;;;12.45;6.43;;;0.10;1.00;;;0.60;98.94;100032.22;5039553;27;118954;-70
2022/04/28 02:19:04;;;;;;;9.88;5.85;;;0.30;1.00;;;0.67;98.61;100035.63;5039416;27;119304;-70
2022/04/28 02:21:33;;;;;;;10.30;5.75;;;0.20;1.00;;;0.74;98.21;100034.69;5034616;27;129851;-70
2022/04/28 02:24:03;;;;;;;15.48;6.70;;;0.10;1.00;;;0.73;97.94;100035.72;5018881;27;130471;-69
2022/04/28 02:26:32;;;;;;;12.45;6.40;;;0.20;1.00;;;0.68;98.40;100033.75;5023634;27;119248;-70
2022/04/28 02:29:00;;;;;;;13.10;6.30;;;0.20;1.00;;;0.71;99.20;100039.44;5041016;27;120146;-71
2022/04/28 02:31:34;;;;;;;13.13;6.43;;;0.30;12.10;;;0.65;99.49;100045.69;5042634;27;129793;-70
2022/04/28 02:34:03;;;;;;;10.30;5.72;;;0.30;25.30;;;0.67;99.80;100040.97;5039188;27;129432;-71
2022/04/28 02:36:37;;;;;;;13.02;6.55;;;0.40;36.30;;;0.65;100.00;100040.34;5026119;27;120217;-71
2022/04/28 02:39:09;;;;;;;14.05;7.05;;;0.40;50.40;;;0.59;100.00;100051.97;5025884;27;119250;-68
2022/04/28 02:41:38;;;;;;;12.35;7.00;;;0.40;68.00;;;0.61;100.00;100033.88;5042328;27;129723;-69
2022/04/28 02:44:07;;;;;;;13.77;7.22;;;0.40;74.10;;;0.64;100.00;100038.75;5042301;27;128702;-68
2022/04/28 02:46:36;;;;;;;10.63;6.63;;;0.40;70.70;;;0.71;100.00;100043.97;5041481;27;122936;-70
2022/04/28 02:49:08;;;;;;;13.48;6.80;;;0.30;71.50;;;0.83;98.82;100046.66;5042485;27;121589;-70
2022/04/28 02:51:39;;;;;;;12.35;6.93;;;0.20;58.10;;;0.85;98.38;100041.88;5025446;27;130442;-70
2022/04/28 02:54:10;;;;;;;12.65;7.35;;;0.20;49.50;;;0.93;97.59;100051.41;5007877;27;129838;-69
2022/04/28 02:56:46;;;;;;;12.95;6.93;;;0.10;45.60;;;0.91;97.71;100046.28;5022353;27;120249;-69
2022/04/28 02:59:15;;;;;;;12.02;6.72;;;0.10;47.80;;;0.95;98.26;100054.63;5042447;27;119490;-70
2022/04/28 03:01:44;;;;;;;10.88;6.03;;;0.20;80.80;;;1.06;98.24;100049.28;5024959;27;129643;-70
2022/04/28 03:04:13;;;;;;;11.73;6.18;;;0.30;84.60;;;1.15;97.76;100056.94;5042297;27;129301;-69
2022/04/28 03:12:16;;;;;;;9.60;5.50;;;0.60;99.90;;;1.54;97.19;100062.53;5020507;27;130093;-70
2022/04/28 03:14:56;;;;;;;10.80;5.70;;;0.70;99.90;;;1.65;96.33;100059.00;5025089;27;128633;-69
2022/04/28 03:17:25;;;;;;;11.20;5.50;;;0.70;95.40;;;1.68;95.91;100063.06;5042589;27;120607;-70
2022/04/28 03:19:54;;;;;;;8.98;5.38;;;0.70;93.10;;;1.72;95.50;100073.06;5025334;27;119727;-69
2022/04/28 03:22:22;;;;;;;11.80;6.22;;;0.70;89.90;;;1.73;95.05;100076.53;5024475;27;130003;-71
2022/04/28 03:24:52;;;;;;;17.00;6.65;;;0.80;86.80;;;1.79;95.09;100071.06;5025049;27;129398;-70
2022/04/28 03:27:21;;;;;;;11.10;6.25;;;0.80;78.40;;;1.85;94.85;100066.59;5024885;27;119510;-71
2022/04/28 03:29:49;;;;;;;12.40;6.30;;;0.80;71.20;;;1.96;94.15;100076.47;5025593;27;118965;-70
2022/04/28 03:32:18;;;;;;;8.85;5.57;;;0.90;67.00;;;2.12;93.58;100069.50;5038434;27;130721;-71
2022/04/28 03:34:49;;;;;;;15.43;5.78;;;0.90;63.40;;;2.23;93.40;100075.00;5040774;27;129518;-68
2022/04/28 03:37:18;;;;;;;12.65;5.88;;;1.00;62.90;;;2.38;93.02;100072.59;5040690;27;122234;-68
2022/04/28 03:39:49;;;;;;;11.85;6.20;;;1.10;64.00;;;2.57;92.27;100091.13;5025842;27;120717;-68
2022/04/28 03:42:20;;;;;;;9.43;5.07;;;1.20;65.10;;;2.72;91.66;100077.16;5026673;27;130013;-70
2022/04/28 03:44:50;;;;;;;10.80;4.90;;;1.40;63.60;;;2.80;90.85;100069.50;5039453;27;129314;-70
2022/04/28 03:47:19;;;;;;;10.63;4.40;;;1.60;52.40;;;2.90;90.21;100078.75;5021474;27;119449;-68
2022/04/28 03:49:50;;;;;;;9.02;4.97;;;1.60;29.80;;;3.03;89.71;100083.75;5025628;27;103247;-67
2022/04/28 03:52:18;;;;;;;9.93;4.30;;;1.80;3.30;;;3.13;89.34;100083.09;5035161;27;130415;-67
2022/04/28 03:54:46;;;;;;;10.25;5.00;;;1.90;1.00;;;3.18;89.22;100086.66;5036283;27;130035;-69
2022/04/28 03:57:15;;;;;;;7.30;4.47;;;1.90;1.00;;;3.17;88.55;100090.38;5033653;27;120117;-66
2022/04/28 03:59:45;;;;;;;6.82;4.13;;;1.90;1.00;;;3.06;88.63;100094.00;5021449;27;119859;-66
2022/04/28 04:02:28;;;;;;;11.13;4.45;;;1.80;1.00;;;3.22;88.44;100098.50;5019199;27;130537;-67
2022/04/28 04:04:57;;;;;;;9.50;4.63;;;1.90;1.00;;;3.45;87.51;100095.84;5038512;27;130046;-68
2022/04/28 04:07:31;;;;;;;10.13;4.50;;;2.00;1.00;;;3.62;86.38;100096.59;5005672;28;119489;-68
2022/04/28 04:09:59;;;;;;;12.20;4.95;;;2.10;1.00;;;3.69;85.31;100099.06;5004172;28;118903;-70
2022/04/28 04:12:34;;;;;;;11.10;6.55;;;2.20;1.00;;;3.63;85.12;100102.75;5002944;28;129741;-69
2022/04/28 04:15:19;;;;;;;13.43;7.70;;;2.20;1.00;;;3.77;84.87;100104.00;5018157;28;129751;-68
2022/04/28 04:17:53;;;;;;;9.23;5.93;;;2.30;1.00;;;3.91;84.30;100104.41;5001522;28;120525;-68
2022/04/28 04:20:26;;;;;;;14.63;7.82;;;2.50;1.00;;;3.88;83.89;100103.06;5004017;28;120199;-69
2022/04/28 04:22:55;;;;;;;14.65;7.85;;;2.50;1.00;;;4.13;82.38;100096.34;5021025;27;129217;-67
2022/04/28 04:25:23;;;;;;;8.52;4.88;;;2.60;1.00;;;4.39;81.56;100093.88;5007010;27;129598;-68
2022/04/28 04:27:56;;;;;;;7.35;4.72;;;2.70;1.00;;;4.50;80.79;100103.63;5022566;27;121988;-69
2022/04/28 04:33:31;;;;;;;8.98;5.13;;;2.70;1.00;;;4.19;82.02;100106.06;5023779;27;130495;-69
2022/04/28 04:36:00;;;;;;;9.68;4.80;;;2.90;1.00;;;4.57;81.15;100106.13;5011942;27;129954;-69
2022/04/28 04:38:28;;;;;;;11.45;6.38;;;3.00;1.00;;;4.96;79.62;100114.75;5010237;28;119301;-68
2022/04/28 04:40:57;;;;;;;10.00;4.82;;;3.20;1.00;;;5.24;78.74;100110.06;5009501;27;119600;-67
2022/04/28 04:43:27;;;;;;;8.65;4.85;;;3.40;1.00;;;5.39;77.43;100118.22;5003364;28;128958;-68
2022/04/28 04:45:57;;;;;;;10.00;5.05;;;3.50;1.00;;;5.50;76.72;100129.84;5001395;28;130373;-66
2022/04/28 04:48:49;;;;;;;10.23;5.18;;;3.50;1.00;;;5.46;76.77;100122.56;4993987;27;119374;-65
2022/04/28 04:51:36;;;;;;;10.95;4.82;;;3.60;1.00;;;5.67;76.25;100116.19;5003828;28;118880;-71
2022/04/28 04:54:17;;;;;;;9.60;4.90;;;3.80;1.00;;;5.82;75.80;100120.00;5002087;28;129963;-70
2022/04/28 04:56:45;;;;;;;8.43;4.82;;;4.00;1.00;;;6.03;74.72;100116.34;5002925;28;129441;-70
2022/04/28 04:59:13;;;;;;;14.65;5.13;;;4.00;1.00;;;6.02;74.47;100114.72;4998508;28;119978;-68
2022/04/28 05:01:43;;;;;;;11.68;4.70;;;4.20;1.00;;;6.13;74.05;100120.13;4986387;28;118132;-69
2022/04/28 05:04:30;;;;;;;8.23;4.93;;;4.20;1.00;;;6.08;73.33;100129.00;5018202;28;130023;-68
2022/04/28 05:07:17;;;;;;;;;;;3.90;1.00;;;5.74;73.76;100135.59;5018438;28;129765;-69
2022/04/28 05:09:48;;;;;;;9.60;4.25;;;3.90;1.00;;;5.99;74.02;100125.22;5018436;28;119593;-70
2022/04/28 05:12:17;;;;;;;9.15;4.38;;;4.10;1.00;;;5.86;74.16;100132.69;4999176;28;119517;-70
2022/04/28 05:15:04;;;;;;;7.40;4.18;;;4.20;1.00;;;5.52;76.02;100127.69;5017800;28;129954;-68
2022/04/28 05:17:40;;;;;;;7.57;4.32;;;4.20;1.00;;;5.79;75.17;100131.31;5003390;28;128975;-69
2022/04/28 05:20:29;;;;;;;8.68;3.70;;;4.20;1.00;;;5.69;75.27;100132.91;5012363;28;122598;-70
2022/04/28 05:23:16;;;;;;;11.77;6.18;;;4.10;1.00;;;5.72;75.12;100131.56;5018289;28;121965;-69
2022/04/28 05:26:03;;;;;;;7.40;3.92;;;4.10;1.00;;;5.91;74.57;100123.81;5018161;28;131554;-69
2022/04/28 05:28:53;;;;;;;7.45;4.18;;;4.20;1.00;;;6.30;73.21;100131.47;4985756;28;129552;-72
2022/04/28 05:31:37;;;;;;;8.18;4.30;;;4.30;1.00;;;6.65;71.50;100129.88;5018221;28;119678;-71
2022/04/28 05:34:12;;;;;;;7.80;3.92;;;4.50;1.00;;;6.34;72.25;100124.44;5018465;28;120367;-70
2022/04/28 05:36:46;;;;;;;7.35;4.10;;;4.50;1.00;;;6.01;73.40;100129.25;5019919;28;129644;-72
2022/04/28 05:39:17;;;;;;;7.38;4.10;;;4.40;1.00;;;5.70;74.75;100139.91;5016887;28;129821;-71
2022/04/28 05:41:46;;;;;;;7.97;5.32;;;4.40;1.00;;;6.11;73.94;100133.88;5013454;27;119430;-71
2022/04/28 05:47:01;;;;;;;12.57;6.95;;;4.70;1.00;;;6.64;71.49;100141.75;5043134;27;129842;-68
2022/04/28 05:49:32;;;;;;;7.00;4.07;;;5.00;1.00;;;6.47;71.91;100147.41;5022594;27;128716;-71
2022/04/28 05:52:02;;;;;;;7.35;4.50;;;4.90;1.00;;;6.38;72.24;100141.72;5058554;27;118897;-72
2022/04/28 05:54:32;;;;;;;14.93;6.78;;;4.90;1.00;;;6.75;70.75;100137.97;5027195;27;118998;-70
2022/04/28 05:57:01;;;;;;;9.48;4.05;;;5.00;1.00;;;7.33;68.12;100132.22;5022460;27;129747;-72
2022/04/28 05:59:29;;;;;;;10.48;5.80;;;5.20;1.00;;;7.69;66.91;100145.59;5022774;27;129916;-71
2022/04/28 06:02:16;;;;;;;8.57;5.25;;;5.60;1.00;;;7.50;67.04;100142.69;5009405;28;118999;-69
2022/04/28 06:04:46;;;;;;;7.63;3.92;;;5.70;1.00;;;7.73;64.80;100145.88;5000252;28;119202;-72
2022/04/28 06:07:16;;;;;;;6.03;3.08;;;5.90;1.00;;;8.39;62.36;100146.59;5019414;28;130193;-71
2022/04/28 06:09:51;;;;;;;6.13;3.67;;;6.20;1.00;;;8.88;60.12;100143.00;5019243;28;128992;-71
2022/04/28 06:12:24;;;;;;;6.55;3.72;;;6.50;1.00;;;9.02;59.42;100142.34;5014921;28;121956;-68
2022/04/28 06:15:16;;;;;;;4.95;2.72;;;6.70;1.00;;;8.91;57.46;100147.84;5016836;27;121994;-71
2022/04/28 06:18:11;;;;;;;4.40;2.67;;;6.80;1.00;;;8.79;57.84;100142.00;5035260;27;130966;-70
2022/04/28 06:20:42;;;;;;;4.43;2.80;;;6.80;1.00;;;9.61;56.85;100138.44;5020317;27;129522;-69
2022/04/28 06:23:14;;;;;;;10.00;3.08;;;7.20;1.00;;;10.02;56.07;100143.38;4995013;28;119099;-70
2022/04/28 06:25:47;;;;;;;5.88;2.75;;;7.50;1.00;;;10.25;54.70;100141.69;4999485;28;119411;-69
2022/04/28 06:28:17;;;;;;;6.93;3.58;;;7.60;1.00;;;10.47;54.68;100137.63;4999104;28;130027;-72
2022/04/28 06:30:52;;;;;;;;;;;7.90;1.00;;;10.57;54.29;100136.66;5002938;28;129261;-71
2022/04/28 06:33:30;;;;;;;4.20;2.40;;;8.10;1.00;;;10.75;53.10;100145.84;4986166;28;118455;-68
2022/04/28 06:36:14;;;;;;;5.65;2.67;;;8.10;1.00;;;10.41;53.97;100139.59;5002568;28;120132;-66
2022/04/28 06:38:46;;;;;;;4.97;2.88;;;7.60;1.00;;;9.67;56.19;100142.72;5005040;27;130408;-67
2022/04/28 06:41:14;;;;;;;4.95;2.60;;;7.40;1.00;;;8.93;58.76;100148.38;5017320;27;129682;-67
2022/04/28 06:43:50;;;;;;;5.95;2.65;;;7.10;1.00;;;8.73;60.08;100140.44;5020566;27;119424;-68
2022/04/28 06:46:31;;;;;;;5.97;2.97;;;7.00;1.00;;;8.14;62.42;100139.47;5036615;27;119602;-66
2022/04/28 06:49:18;;;;;;;5.25;2.67;;;6.80;1.00;;;8.47;61.75;100143.31;5019875;27;130009;-67
2022/04/28 06:52:06;;;;;;;5.43;2.90;;;6.90;1.00;;;8.76;60.54;100145.28;5033201;27;129352;-67
2022/04/28 06:54:53;;;;;;;7.45;3.22;;;7.10;1.00;;;9.44;58.27;100138.13;5034864;27;118974;-67
2022/04/28 06:57:25;;;;;;;5.40;2.90;;;7.40;1.00;;;9.78;57.25;100137.19;5036333;27;119378;-70
2022/04/28 06:59:55;;;;;;;8.40;3.78;;;7.70;1.00;;;10.29;57.21;100136.47;5018589;27;130201;-68
2022/04/28 07:02:24;;;;;;;4.97;2.70;;;8.00;1.00;;;10.36;54.83;100138.84;5018713;27;129238;-69
2022/04/28 07:04:54;;;;;;;5.75;3.03;;;8.10;1.00;;;9.61;56.22;100135.75;5018006;27;123235;-68
2022/04/28 07:07:28;;;;;;;5.13;2.72;;;8.00;1.00;;;10.25;55.66;100146.28;5022072;27;121987;-68
2022/04/28 07:09:59;;;;;;;8.60;3.42;;;8.20;1.00;;;10.83;54.44;100141.63;5018137;27;130122;-68
2022/04/28 07:12:28;;;;;;;7.05;3.58;;;8.40;1.00;;;11.05;54.06;100136.38;5018546;27;129357;-68
2022/04/28 07:15:17;;;;;;;6.80;2.58;;;8.50;1.00;;;11.52;52.81;100139.84;4997088;27;119695;-69
2022/04/28 07:18:11;;;;;;;6.50;3.00;;;9.00;1.00;;;11.92;52.10;100135.78;5054562;27;119590;-69
2022/04/28 07:20:40;;;;;;;4.50;2.75;;;9.30;1.00;;;11.42;52.61;100137.34;5045485;27;129767;-67
2022/04/28 07:23:11;;;;;;;6.20;2.78;;;9.20;1.00;;;11.39;50.11;100132.50;5028122;27;129803;-69
2022/04/28 07:25:40;;;;;;;6.10;2.33;;;8.90;1.00;;;11.04;51.14;100140.19;5022111;28;120594;-67
2022/04/28 07:28:09;;;;;;;5.18;2.47;;;9.00;1.00;;;10.66;52.81;100139.47;4988910;28;118585;-68
2022/04/28 07:30:58;;;;;;;6.38;2.83;;;8.70;1.00;;;10.40;53.53;100143.41;5021297;28;129718;-67
2022/04/28 07:33:45;;;;;;;4.65;2.30;;;8.50;1.00;;;10.32;52.37;100144.03;5017420;28;129048;-67
2022/04/28 07:36:52;;;;;;;6.67;2.73;;;8.50;1.00;;;11.07;52.03;100150.47;4977942;28;120389;-69
2022/04/28 07:39:41;;;;;;;7.78;2.22;;;8.90;1.00;;;11.92;48.76;100146.66;4961602;28;118960;-71
2022/04/28 07:42:33;;;;;;;4.32;2.13;;;9.20;1.00;;;12.22;46.82;100150.66;5002513;28;130048;-70
2022/04/28 07:45:02;;;;;;;5.35;2.47;;;9.50;1.00;;;12.30;46.85;100147.22;5008874;27;128804;-71
2022/04/28 07:47:32;;;;;;;5.80;2.60;;;9.60;1.00;;;12.56;46.04;100149.34;5020678;27;119684;-72
2022/04/28 07:50:16;;;;;;;5.60;2.40;;;9.90;1.00;;;12.84;44.72;100144.59;5022240;27;119758;-71
2022/04/28 07:52:45;;;;;;;4.38;2.17;;;10.10;1.00;;;12.81;44.11;100145.19;5021335;27;130802;-69
2022/04/28 07:55:16;;;;;;;9.60;2.67;;;9.90;1.00;;;12.65;44.31;100142.03;5024516;27;129492;-68
2022/04/28 07:57:47;;;;;;;9.05;2.28;;;10.00;1.00;;;12.95;41.91;100150.59;5023588;27;121618;-69
2022/04/28 08:00:25;;;;;;;4.47;2.28;;;9.80;1.00;;;12.84;41.20;100138.31;5007639;27;120974;-69
2022/04/28 08:02:56;;;;;;;4.40;2.13;;;9.50;1.00;;;13.01;40.49;100132.16;5023154;27;129483;-72
2022/04/28 08:05:35;;;;;;;4.78;1.73;;;9.60;1.00;;;13.07;38.85;100136.38;5025379;27;129833;-72
2022/04/28 08:08:04;;;;;;;3.67;2.03;;;10.00;1.00;;;13.11;36.60;100137.34;5025086;27;119737;-72
2022/04/28 08:10:34;;;;;;;3.08;1.80;;;9.80;1.00;;;13.34;33.77;100134.59;5024859;27;119554;-72
2022/04/28 08:13:04;;;;;;;4.28;2.10;;;9.90;1.00;;;13.79;34.03;100129.78;5021179;27;130102;-70
2022/04/28 08:15:54;;;;;;;5.97;1.90;;;10.50;1.00;;;13.85;30.87;100127.69;5038118;27;130446;-72
2022/04/28 08:18:23;;;;;;;6.53;2.55;;;10.30;1.00;;;14.50;33.87;100136.09;5024538;27;118591;-70
2022/04/28 08:20:54;;;;;;;4.38;2.10;;;11.10;1.00;;;14.86;30.67;100130.28;5021407;27;120146;-73
2022/04/28 08:23:23;;;;;;;7.53;2.72;;;11.60;1.00;;;14.91;34.49;100134.78;5022921;27;130488;-69
2022/04/28 08:25:54;;;;;;;5.05;2.85;;;11.70;1.00;;;14.52;34.37;100123.75;5024350;27;129166;-72
2022/04/28 08:28:22;;;;;;;5.78;2.83;;;11.50;1.00;;;14.39;35.53;100122.75;5024560;27;120445;-73
2022/04/28 08:30:51;;;;;;;5.88;3.22;;;11.20;1.00;;;14.26;35.89;100131.94;5023274;27;119162;-72
2022/04/28 08:33:21;;;;;;;6.60;2.60;;;11.20;1.00;;;14.05;38.11;100128.22;5021687;27;129781;-69
2022/04/28 08:35:50;;;;;;;6.72;3.25;;;10.70;1.00;;;13.51;40.41;100134.69;5022588;27;129355;-70
2022/04/28 08:38:18;;;;;;;5.57;2.92;;;10.30;1.00;;;13.06;40.11;100123.88;5024387;27;119864;-73
2022/04/28 08:40:50;;;;;;;6.97;3.15;;;9.70;1.00;;;12.55;40.17;100131.41;5024570;27;118670;-71
2022/04/28 08:43:42;;;;;;;12.65;3.15;;;9.10;1.00;;;12.33;38.98;100132.19;5023298;27;132619;-71
2022/04/28 08:48:59;;;;;;;4.57;2.30;;;9.80;1.00;;;12.87;32.69;100127.63;5020130;27;122051;-72
2022/04/28 08:51:29;;;;;;;4.75;2.72;;;9.80;1.00;;;12.64;34.78;100128.75;5023950;27;122096;-71
2022/04/28 08:54:03;;;;;;;4.88;2.25;;;10.20;1.00;;;12.93;35.39;100129.09;5023454;27;129299;-71
2022/04/28 08:56:34;;;;;;;8.18;2.78;;;10.30;1.00;;;12.21;38.74;100128.06;5023970;27;131218;-70
2022/04/28 08:59:08;;;;;;;4.93;2.45;;;10.20;1.00;;;11.64;38.87;100124.94;5007377;27;118607;-71
2022/04/28 09:01:38;;;;;;;4.45;2.72;;;10.00;1.00;;;12.11;39.08;100139.22;5024014;27;119133;-71
2022/04/28 09:04:27;;;;;;;5.80;2.80;;;10.10;1.00;;;11.79;39.52;100146.38;5038277;27;130013;-71
2022/04/28 09:07:15;;;;;;;5.47;2.50;;;9.20;1.00;;;11.91;41.17;100134.97;5030182;27;129188;-70
2022/04/28 09:09:44;;;;;;;6.78;2.75;;;9.50;1.00;;;12.19;39.59;100124.88;5038602;27;119773;-72
2022/04/28 09:12:31;;;;;;;6.20;2.30;;;9.60;1.00;;;12.35;37.94;100132.69;5038732;27;119621;-72
2022/04/28 09:15:13;;;;;;;6.85;2.65;;;9.80;1.00;;;12.25;37.34;100125.56;5036833;27;130487;-72
2022/04/28 09:18:06;;;;;;;6.78;2.70;;;10.10;1.00;;;12.38;35.80;100132.88;5040874;27;129423;-73
2022/04/28 09:20:36;;;;;;;5.90;2.65;;;10.30;1.00;;;12.29;35.70;100123.81;5007141;27;119330;-70
2022/04/28 09:23:06;;;;;;;6.25;2.90;;;10.20;1.00;;;12.20;36.09;100140.09;4991248;27;118405;-72
2022/04/28 09:25:44;;;;;;;18.00;3.17;;;9.60;1.00;;;12.20;36.65;100136.53;5020101;27;131658;-71
2022/04/28 09:28:16;;;;;;;4.10;2.25;;;9.70;1.00;;;12.15;34.33;100129.31;5006377;27;129294;-71
2022/04/28 09:30:51;;;;;;;6.55;3.70;;;9.50;1.00;;;12.50;35.99;100124.16;5023350;27;118883;-69
2022/04/28 09:33:39;;;;;;;6.00;2.92;;;10.10;1.00;;;12.97;32.38;100121.09;5038894;27;120251;-71
2022/04/28 09:36:22;;;;;;;9.40;3.30;;;10.50;1.00;;;12.73;31.00;100124.97;5004962;27;129549;-72
2022/04/28 09:38:55;;;;;;;14.13;2.90;;;9.90;1.00;;;12.42;31.66;100122.19;5023363;27;130627;-70
2022/04/28 09:44:19;;;;;;;8.88;2.78;;;9.70;1.00;;;11.90;32.56;100129.84;5022942;27;121488;-70
2022/04/28 09:46:56;;;;;;;6.55;2.80;;;9.60;1.00;;;11.55;32.50;100143.06;5022837;27;129090;-71
2022/04/28 09:49:25;;;;;;;6.60;2.83;;;9.40;1.00;;;11.55;32.23;100126.78;5023083;27;129515;-73
2022/04/28 09:52:14;;;;;;;3.92;2.35;;;9.20;1.00;;;11.42;29.77;100109.34;5039949;27;119679;-69
2022/04/28 09:55:07;;;;;;;9.05;2.55;;;9.20;1.00;;;11.39;27.51;100118.91;5006632;27;118210;-72
2022/04/28 09:57:55;;;;;;;11.55;10.15;;;9.20;1.00;;;11.26;29.70;100125.94;5040626;27;129743;-72
2022/04/28 10:00:24;;;;;;;7.10;2.45;;;9.60;1.00;;;11.70;28.74;100115.56;5016530;27;129555;-72
2022/04/28 10:02:59;;;;;;;7.68;2.20;;;9.70;1.00;;;11.66;27.03;100133.59;5000108;28;120062;-74
2022/04/28 10:05:33;;;;;;;8.82;2.55;;;9.80;1.00;;;11.89;27.75;100115.44;5002730;28;120329;-71
2022/04/28 10:08:25;;;;;;;5.53;2.47;;;9.80;1.00;;;11.46;27.51;100122.03;5027813;27;129632;-74
2022/04/28 10:10:56;;;;;;;3.85;1.83;;;9.90;1.00;;;12.03;26.20;100126.34;5021425;27;129265;-70
2022/04/28 10:13:30;;;;;;;6.75;2.10;;;10.10;1.00;;;11.84;26.15;100132.69;5010477;27;119811;-73
2022/04/28 10:16:03;;;;;;;5.35;1.98;;;9.60;1.00;;;11.86;23.09;100125.00;5032955;27;120180;-71
2022/04/28 10:18:41;;;;;;;7.80;2.08;;;9.70;1.00;;;12.22;24.85;100124.25;5040334;27;129484;-75
2022/04/28 10:21:14;;;;;;;6.45;2.70;;;10.20;1.00;;;12.18;25.96;100134.13;5034455;27;129689;-72
2022/04/28 10:32:57;;;;;;;4.70;2.28;;;9.80;1.00;;;11.66;26.50;100133.59;5057467;27;129552;-75
2022/04/28 10:35:55;;;;;;;4.10;2.17;;;9.40;1.00;;;11.93;27.54;100129.25;5056223;27;121947;-73
2022/04/28 10:38:30;;;;;;;8.15;2.40;;;10.00;1.00;;;11.97;26.89;100117.47;5057125;27;121911;-75
2022/04/28 10:41:05;;;;;;;10.55;2.42;;;9.80;1.00;;;12.00;26.20;100116.06;5055531;27;130029;-71
2022/04/28 10:43:39;;;;;;;8.53;1.90;;;10.20;1.00;;;12.28;24.11;100122.22;5040099;27;128337;-70
2022/04/28 10:46:32;;;;;;;11.13;2.38;;;10.00;1.00;;;12.10;26.28;100115.81;5057347;27;119817;-72
2022/04/28 10:49:05;;;;;;;3.95;1.85;;;10.00;1.00;;;12.40;26.18;100110.78;5016117;28;119302;-75
2022/04/28 10:51:36;;;;;;;3.78;1.70;;;10.30;1.00;;;12.32;24.28;100127.84;5019392;28;130368;-70
2022/04/28 10:54:09;;;;;;;4.28;1.70;;;10.30;1.00;;;12.31;24.43;100124.34;5020575;28;129282;-74
2022/04/28 10:57:00;;;;;;;2.83;1.63;;;10.20;1.00;;;12.44;24.66;100109.06;5020239;28;119696;-71
2022/04/28 10:59:40;;;;;;;14.13;2.58;;;10.50;1.00;;;12.58;25.85;100120.69;5005731;28;118543;-72
2022/04/28 11:02:50;;;;;;;3.72;1.52;;;10.70;1.00;;;12.41;24.28;100120.56;5004248;28;129836;-69
2022/04/28 11:05:40;;;;;;;4.70;1.65;;;10.40;1.00;;;12.28;25.26;100121.41;5005563;28;129508;-71
2022/04/28 11:08:27;;;;;;;5.30;1.80;;;10.30;1.00;;;12.33;25.88;100129.47;5020723;28;119733;-72
2022/04/28 11:11:12;;;;;;;8.63;2.53;;;10.00;1.00;;;11.68;25.70;100120.50;5020570;28;120473;-74
2022/04/28 11:13:49;;;;;;;7.25;1.95;;;9.80;1.00;;;12.05;25.87;100118.66;5031527;27;130303;-69
2022/04/28 11:16:19;;;;;;;6.40;1.92;;;10.10;1.00;;;12.36;25.67;100118.78;5040286;27;129718;-73
2022/04/28 11:18:47;;;;;;;7.43;2.20;;;10.70;1.00;;;12.36;26.03;100123.41;5042540;27;119759;-71
2022/04/28 11:21:16;;;;;;;8.98;2.10;;;10.60;1.00;;;12.02;25.03;100119.28;5026004;27;118465;-74
2022/04/28 11:23:49;;;;;;;5.97;1.90;;;9.80;1.00;;;12.18;26.00;100114.28;5040093;27;130377;-74